Airfield :
LOGIN :

Register | Disclaimer

   EN    FR    IT 

 










Legend :    VFR   Marginal VFR   IFR   Intensive IFR   Very Intensive IFR
Visi :
Ceiling :
>= 8 km
>= 3000ft
5 to 8 km
1000 to 3000 ft
1500m to 5 km
500 to 1000 ft
800 to 1500m
200 to 500 ft
< 800m
< 200 ft
Symbols :   Thunderstorms  Fog  Heavy snow  Heavy precipitations  Wind > 20 kt
SIGMETs :     Misc.  Thunderstorms  Icing  Turbulence  Mountain Waves  Volcanic Ashes







- Airport Elevation : 1161 ft
- IATA code : RJL


LELO - Logroño-Agoncillo

CURRENT METAR :
  • 250400Z 27005KT 230V320 9999 SCT040 08/05 Q1004

EXPIRED METARs :
  • 250330Z AUTO 31004KT 9999 FEW050 08/07 Q1004
  • 250300Z AUTO 10005KT CAVOK 08/07 Q1003
  • 250230Z AUTO 00000KT 9999 FEW038 09/08 Q1003
  • 250200Z AUTO 30004KT 250V340 9999 FEW069 09/08 Q1003
  • 250130Z AUTO VRB01KT 9999 -RA BKN058 10/08 Q1002
  • 250100Z AUTO VRB05KT 9999 -RA SCT056 BKN070 10/08 Q1002

TAF TAF LELO
Valid from the 25 at 03:00 until the 25 at 12:00 UTC


250200Z 2503/2512 VRB05KT 9999 SCT040
BECMG 2506/2508 24010KT
No reported NOTAMs for that airfield.



MET'MAP, your aeronautical weather chart ! - Copyright ORBIFLY December 2007 - Disclaimer

ORBIFLY MET'MAP TEAM :

Programming & Development : Alexandra Zaïnal
Concept & Development : Baudouin d'Aumeries
Co-Development & Prog : Marc-Olivier Méhu
Technical & hardware support : Manuel Goepfert

Contact : metmap@orbifly.com




SOURCES & CREDITS :

   NOAA